sensor_id;sensor_type;location;lat;lon;timestamp;pressure;altitude;pressure_sealevel;temperature;humidity
46129;BME280;31860;45.186;5.790;2024-03-02T00:00:08;98300.81;;;10.52;100.00
46129;BME280;31860;45.186;5.790;2024-03-02T00:02:46;98295.56;;;10.54;100.00
46129;BME280;31860;45.186;5.790;2024-03-02T00:05:12;98306.06;;;10.49;100.00
46129;BME280;31860;45.186;5.790;2024-03-02T00:07:40;98298.34;;;10.40;100.00
46129;BME280;31860;45.186;5.790;2024-03-02T00:10:09;98304.44;;;10.42;100.00
46129;BME280;31860;45.186;5.790;2024-03-02T00:12:38;98294.78;;;10.47;100.00
46129;BME280;31860;45.186;5.790;2024-03-02T00:15:06;98294.75;;;10.50;100.00
46129;BME280;31860;45.186;5.790;2024-03-02T00:17:39;98293.81;;;10.52;100.00
46129;BME280;31860;45.186;5.790;2024-03-02T00:20:09;98299.91;;;10.53;100.00
46129;BME280;31860;45.186;5.790;2024-03-02T00:22:35;98300.81;;;10.50;100.00
46129;BME280;31860;45.186;5.790;2024-03-02T00:25:03;98296.44;;;10.52;100.00
46129;BME280;31860;45.186;5.790;2024-03-02T00:27:28;98299.84;;;10.56;100.00
46129;BME280;31860;45.186;5.790;2024-03-02T00:29:54;98302.41;;;10.61;100.00
46129;BME280;31860;45.186;5.790;2024-03-02T00:32:22;98301.50;;;10.62;100.00
46129;BME280;31860;45.186;5.790;2024-03-02T00:34:47;98308.50;;;10.61;100.00
46129;BME280;31860;45.186;5.790;2024-03-02T00:37:14;98308.44;;;10.64;100.00
46129;BME280;31860;45.186;5.790;2024-03-02T00:39:39;98306.72;;;10.65;100.00
46129;BME280;31860;45.186;5.790;2024-03-02T00:42:05;98317.19;;;10.63;100.00
46129;BME280;31860;45.186;5.790;2024-03-02T00:44:33;98315.53;;;10.56;100.00
46129;BME280;31860;45.186;5.790;2024-03-02T00:47:00;98317.25;;;10.57;100.00
46129;BME280;31860;45.186;5.790;2024-03-02T00:49:26;98316.47;;;10.52;100.00
46129;BME280;31860;45.186;5.790;2024-03-02T00:51:53;98312.97;;;10.53;100.00
46129;BME280;31860;45.186;5.790;2024-03-02T00:54:20;98318.25;;;10.50;100.00
46129;BME280;31860;45.186;5.790;2024-03-02T00:56:46;98312.13;;;10.51;100.00
46129;BME280;31860;45.186;5.790;2024-03-02T00:59:12;98323.47;;;10.50;100.00
46129;BME280;31860;45.186;5.790;2024-03-02T01:01:37;98313.03;;;10.50;100.00
46129;BME280;31860;45.186;5.790;2024-03-02T01:04:03;98320.78;;;10.53;100.00
46129;BME280;31860;45.186;5.790;2024-03-02T01:06:29;98321.69;;;10.50;100.00
46129;BME280;31860;45.186;5.790;2024-03-02T01:08:54;98319.97;;;10.49;100.00
46129;BME280;31860;45.186;5.790;2024-03-02T01:11:20;98318.22;;;10.48;100.00
46129;BME280;31860;45.186;5.790;2024-03-02T01:13:47;98325.22;;;10.48;100.00
46129;BME280;31860;45.186;5.790;2024-03-02T01:16:12;98322.59;;;10.49;100.00
46129;BME280;31860;45.186;5.790;2024-03-02T01:18:37;98322.63;;;10.46;100.00
46129;BME280;31860;45.186;5.790;2024-03-02T01:21:03;98320.03;;;10.45;100.00
46129;BME280;31860;45.186;5.790;2024-03-02T01:23:29;98308.75;;;10.43;100.00
46129;BME280;31860;45.186;5.790;2024-03-02T01:25:54;98320.06;;;10.43;100.00
46129;BME280;31860;45.186;5.790;2024-03-02T01:28:20;98308.78;;;10.40;100.00
46129;BME280;31860;45.186;5.790;2024-03-02T01:30:46;98306.25;;;10.37;100.00
46129;BME280;31860;45.186;5.790;2024-03-02T01:33:11;98307.94;;;10.39;100.00
46129;BME280;31860;45.186;5.790;2024-03-02T01:35:36;98303.59;;;10.40;100.00
46129;BME280;31860;45.186;5.790;2024-03-02T01:38:03;98310.50;;;10.42;100.00
46129;BME280;31860;45.186;5.790;2024-03-02T01:40:28;98305.34;;;10.38;100.00
46129;BME280;31860;45.186;5.790;2024-03-02T01:42:54;98317.59;;;10.33;100.00
46129;BME280;31860;45.186;5.790;2024-03-02T01:45:20;98315.00;;;10.30;100.00
46129;BME280;31860;45.186;5.790;2024-03-02T01:47:47;98320.22;;;10.31;100.00
46129;BME280;31860;45.186;5.790;2024-03-02T01:50:12;98315.91;;;10.29;100.00
46129;BME280;31860;45.186;5.790;2024-03-02T01:52:38;98303.72;;;10.28;100.00
46129;BME280;31860;45.186;5.790;2024-03-02T01:55:04;98295.91;;;10.28;100.00
46129;BME280;31860;45.186;5.790;2024-03-02T01:57:29;98295.06;;;10.27;100.00
46129;BME280;31860;45.186;5.790;2024-03-02T01:59:56;98288.19;;;10.20;100.00
46129;BME280;31860;45.186;5.790;2024-03-02T02:02:21;98300.34;;;10.21;100.00
46129;BME280;31860;45.186;5.790;2024-03-02T02:04:47;98296.00;;;10.20;100.00
46129;BME280;31860;45.186;5.790;2024-03-02T02:07:12;98296.91;;;10.19;100.00
46129;BME280;31860;45.186;5.790;2024-03-02T02:09:42;98286.38;;;10.24;100.00
46129;BME280;31860;45.186;5.790;2024-03-02T02:12:09;98285.53;;;10.22;100.00
46129;BME280;31860;45.186;5.790;2024-03-02T02:14:35;98282.94;;;10.22;100.00
46129;BME280;31860;45.186;5.790;2024-03-02T02:17:00;98282.94;;;10.22;100.00
46129;BME280;31860;45.186;5.790;2024-03-02T02:19:25;98284.72;;;10.18;100.00
46129;BME280;31860;45.186;5.790;2024-03-02T02:21:51;98279.56;;;10.15;100.00
46129;BME280;31860;45.186;5.790;2024-03-02T02:24:16;98283.94;;;10.13;100.00
46129;BME280;31860;45.186;5.790;2024-03-02T02:26:41;98284.81;;;10.14;100.00
46129;BME280;31860;45.186;5.790;2024-03-02T02:29:07;98278.66;;;10.18;100.00
46129;BME280;31860;45.186;5.790;2024-03-02T02:31:39;98277.78;;;10.19;100.00
46129;BME280;31860;45.186;5.790;2024-03-02T02:34:05;98278.63;;;10.19;100.00
46129;BME280;31860;45.186;5.790;2024-03-02T02:36:32;98283.88;;;10.16;100.00
46129;BME280;31860;45.186;5.790;2024-03-02T02:39:00;98279.63;;;10.08;100.00
46129;BME280;31860;45.186;5.790;2024-03-02T02:41:28;98270.06;;;10.08;100.00
46129;BME280;31860;45.186;5.790;2024-03-02T02:43:53;98268.38;;;10.04;100.00
46129;BME280;31860;45.186;5.790;2024-03-02T02:46:18;98257.06;;;10.04;100.00
46129;BME280;31860;45.186;5.790;2024-03-02T02:48:44;98265.81;;;10.00;100.00
46129;BME280;31860;45.186;5.790;2024-03-02T02:51:09;98262.38;;;9.96;100.00
46129;BME280;31860;45.186;5.790;2024-03-02T02:53:34;98254.56;;;9.96;100.00
46129;BME280;31860;45.186;5.790;2024-03-02T02:56:00;98256.34;;;9.93;100.00
46129;BME280;31860;45.186;5.790;2024-03-02T02:58:26;98264.25;;;9.87;100.00
46129;BME280;31860;45.186;5.790;2024-03-02T03:00:51;98257.34;;;9.83;100.00
46129;BME280;31860;45.186;5.790;2024-03-02T03:03:17;98262.53;;;9.83;100.00
46129;BME280;31860;45.186;5.790;2024-03-02T03:05:42;98263.41;;;9.85;100.00
46129;BME280;31860;45.186;5.790;2024-03-02T03:08:07;98271.19;;;9.86;100.00
46129;BME280;31860;45.186;5.790;2024-03-02T03:10:33;98255.53;;;9.89;100.00
46129;BME280;31860;45.186;5.790;2024-03-02T03:12:58;98250.22;;;9.94;100.00
46129;BME280;31860;45.186;5.790;2024-03-02T03:15:23;98262.44;;;9.93;100.00
46129;BME280;31860;45.186;5.790;2024-03-02T03:17:49;98262.44;;;9.90;100.00
46129;BME280;31860;45.186;5.790;2024-03-02T03:20:15;98259.91;;;9.86;100.00
46129;BME280;31860;45.186;5.790;2024-03-02T03:22:41;98253.75;;;9.91;100.00
46129;BME280;31860;45.186;5.790;2024-03-02T03:25:07;98257.22;;;9.93;100.00
46129;BME280;31860;45.186;5.790;2024-03-02T03:27:33;98269.44;;;9.88;100.00
46129;BME280;31860;45.186;5.790;2024-03-02T03:29:58;98258.09;;;9.91;100.00
46129;BME280;31860;45.186;5.790;2024-03-02T03:32:23;98251.13;;;9.93;100.00
46129;BME280;31860;45.186;5.790;2024-03-02T03:34:49;98247.63;;;9.94;100.00
46129;BME280;31860;45.186;5.790;2024-03-02T03:37:15;98249.34;;;9.96;100.00
46129;BME280;31860;45.186;5.790;2024-03-02T03:39:40;98245.03;;;9.95;100.00
46129;BME280;31860;45.186;5.790;2024-03-02T03:42:06;98248.44;;;9.99;100.00
46129;BME280;31860;45.186;5.790;2024-03-02T03:44:31;98237.09;;;10.01;100.00
46129;BME280;31860;45.186;5.790;2024-03-02T03:46:57;98230.94;;;10.07;100.00
46129;BME280;31860;45.186;5.790;2024-03-02T03:49:22;98224.91;;;10.05;100.00
46129;BME280;31860;45.186;5.790;2024-03-02T03:51:47;98231.91;;;10.00;100.00
46129;BME280;31860;45.186;5.790;2024-03-02T03:54:13;98233.66;;;10.01;100.00
46129;BME280;31860;45.186;5.790;2024-03-02T03:56:38;98225.78;;;10.02;100.00
46129;BME280;31860;45.186;5.790;2024-03-02T03:59:03;98223.16;;;10.04;100.00
46129;BME280;31860;45.186;5.790;2024-03-02T04:01:30;98228.41;;;9.99;100.00
46129;BME280;31860;45.186;5.790;2024-03-02T04:03:55;98227.59;;;9.99;100.00
46129;BME280;31860;45.186;5.790;2024-03-02T04:06:20;98217.09;;;10.02;100.00
46129;BME280;31860;45.186;5.790;2024-03-02T04:08:46;98218.81;;;10.04;100.00
46129;BME280;31860;45.186;5.790;2024-03-02T04:11:11;98223.94;;;10.09;100.00
46129;BME280;31860;45.186;5.790;2024-03-02T04:13:37;98214.38;;;10.11;100.00
46129;BME280;31860;45.186;5.790;2024-03-02T04:16:02;98205.66;;;10.13;100.00
46129;BME280;31860;45.186;5.790;2024-03-02T04:18:29;98205.72;;;10.07;100.00
46129;BME280;31860;45.186;5.790;2024-03-02T04:20:54;98204.00;;;10.06;100.00
46129;BME280;31860;45.186;5.790;2024-03-02T04:23:19;98202.19;;;10.13;100.00
46129;BME280;31860;45.186;5.790;2024-03-02T04:25:45;98208.31;;;10.12;100.00
46129;BME280;31860;45.186;5.790;2024-03-02T04:28:10;98210.91;;;10.09;100.00
46129;BME280;31860;45.186;5.790;2024-03-02T04:30:37;98204.84;;;10.10;100.00
46129;BME280;31860;45.186;5.790;2024-03-02T04:33:03;98198.72;;;10.14;100.00
46129;BME280;31860;45.186;5.790;2024-03-02T04:35:29;98202.16;;;10.16;100.00
46129;BME280;31860;45.186;5.790;2024-03-02T04:37:54;98208.25;;;10.15;100.00
46129;BME280;31860;45.186;5.790;2024-03-02T04:40:19;98214.34;;;10.15;100.00
46129;BME280;31860;45.186;5.790;2024-03-02T04:42:45;98211.63;;;10.23;100.00
46129;BME280;31860;45.186;5.790;2024-03-02T04:45:10;98204.59;;;10.26;100.00
46129;BME280;31860;45.186;5.790;2024-03-02T04:47:35;98210.75;;;10.22;100.00
46129;BME280;31860;45.186;5.790;2024-03-02T04:50:01;98219.50;;;10.20;100.00
46129;BME280;31860;45.186;5.790;2024-03-02T04:52:26;98216.91;;;10.17;100.00
46129;BME280;31860;45.186;5.790;2024-03-02T04:54:51;98220.44;;;10.13;100.00
46129;BME280;31860;45.186;5.790;2024-03-02T04:57:45;98222.22;;;10.11;100.00
46129;BME280;31860;45.186;5.790;2024-03-02T05:00:11;98226.56;;;10.07;100.00
46129;BME280;31860;45.186;5.790;2024-03-02T05:02:37;98222.28;;;10.05;100.00
46129;BME280;31860;45.186;5.790;2024-03-02T05:05:03;98221.38;;;10.06;100.00
46129;BME280;31860;45.186;5.790;2024-03-02T05:07:28;98216.19;;;10.06;100.00
46129;BME280;31860;45.186;5.790;2024-03-02T05:09:54;98217.88;;;10.10;100.00
46129;BME280;31860;45.186;5.790;2024-03-02T05:12:19;98219.59;;;10.12;100.00
46129;BME280;31860;45.186;5.790;2024-03-02T05:14:45;98217.78;;;10.17;100.00
46129;BME280;31860;45.186;5.790;2024-03-02T05:17:11;98211.66;;;10.21;100.00
46129;BME280;31860;45.186;5.790;2024-03-02T05:19:36;98209.03;;;10.21;100.00
46129;BME280;31860;45.186;5.790;2024-03-02T05:22:01;98210.75;;;10.22;100.00
46129;BME280;31860;45.186;5.790;2024-03-02T05:24:27;98211.63;;;10.23;100.00
46129;BME280;31860;45.186;5.790;2024-03-02T05:26:53;98218.63;;;10.19;100.00
46129;BME280;31860;45.186;5.790;2024-03-02T05:29:18;98216.00;;;10.19;100.00
46129;BME280;31860;45.186;5.790;2024-03-02T05:31:44;98202.03;;;10.23;100.00
46129;BME280;31860;45.186;5.790;2024-03-02T05:34:09;98193.28;;;10.27;100.00
46129;BME280;31860;45.186;5.790;2024-03-02T05:36:35;98194.16;;;10.26;100.00
46129;BME280;31860;45.186;5.790;2024-03-02T05:39:00;98202.00;;;10.26;100.00
46129;BME280;31860;45.186;5.790;2024-03-02T05:41:26;98196.78;;;10.25;100.00
46129;BME280;31860;45.186;5.790;2024-03-02T05:43:52;98202.88;;;10.25;100.00
46129;BME280;31860;45.186;5.790;2024-03-02T05:46:17;98197.66;;;10.24;100.00
46129;BME280;31860;45.186;5.790;2024-03-02T05:48:42;98195.13;;;10.21;100.00
46129;BME280;31860;45.186;5.790;2024-03-02T05:51:08;98189.06;;;10.19;100.00
46129;BME280;31860;45.186;5.790;2024-03-02T05:53:33;98187.25;;;10.22;100.00
46129;BME280;31860;45.186;5.790;2024-03-02T05:55:59;98191.59;;;10.23;100.00
46129;BME280;31860;45.186;5.790;2024-03-02T05:58:24;98187.22;;;10.24;100.00
46129;BME280;31860;45.186;5.790;2024-03-02T06:00:49;98171.53;;;10.27;100.00
46129;BME280;31860;45.186;5.790;2024-03-02T06:03:15;98167.16;;;10.29;100.00
46129;BME280;31860;45.186;5.790;2024-03-02T06:05:40;98171.47;;;10.30;100.00
46129;BME280;31860;45.186;5.790;2024-03-02T06:08:06;98168.00;;;10.31;100.00
46129;BME280;31860;45.186;5.790;2024-03-02T06:10:32;98162.78;;;10.31;100.00
46129;BME280;31860;45.186;5.790;2024-03-02T06:12:58;98164.50;;;10.32;100.00
46129;BME280;31860;45.186;5.790;2024-03-02T06:15:24;98156.63;;;10.33;100.00
46129;BME280;31860;45.186;5.790;2024-03-02T06:17:49;98156.63;;;10.35;100.00
46129;BME280;31860;45.186;5.790;2024-03-02T06:20:15;98167.06;;;10.33;100.00
46129;BME280;31860;45.186;5.790;2024-03-02T06:22:40;98161.84;;;10.33;100.00
46129;BME280;31860;45.186;5.790;2024-03-02T06:25:06;98163.63;;;10.33;100.00
46129;BME280;31860;45.186;5.790;2024-03-02T06:27:31;98151.41;;;10.33;100.00
46129;BME280;31860;45.186;5.790;2024-03-02T06:29:56;98156.66;;;10.32;100.00
46129;BME280;31860;45.186;5.790;2024-03-02T06:32:22;98147.13;;;10.31;100.00
46129;BME280;31860;45.186;5.790;2024-03-02T06:34:48;98147.06;;;10.34;100.00
46129;BME280;31860;45.186;5.790;2024-03-02T06:37:13;98147.97;;;10.31;100.00
46129;BME280;31860;45.186;5.790;2024-03-02T06:39:40;98140.19;;;10.28;100.00
46129;BME280;31860;45.186;5.790;2024-03-02T06:42:05;98141.09;;;10.27;100.00
46129;BME280;31860;45.186;5.790;2024-03-02T06:44:30;98145.47;;;10.24;100.00
46129;BME280;31860;45.186;5.790;2024-03-02T06:46:56;98147.31;;;10.19;100.00
46129;BME280;31860;45.186;5.790;2024-03-02T06:49:21;98148.22;;;10.18;100.00
46129;BME280;31860;45.186;5.790;2024-03-02T06:51:47;98144.72;;;10.17;100.00
46129;BME280;31860;45.186;5.790;2024-03-02T06:54:12;98147.34;;;10.17;100.00
46129;BME280;31860;45.186;5.790;2024-03-02T06:56:37;98143.00;;;10.16;100.00
46129;BME280;31860;45.186;5.790;2024-03-02T06:59:04;98131.63;;;10.20;100.00
46129;BME280;31860;45.186;5.790;2024-03-02T07:01:29;98131.59;;;10.22;100.00
46129;BME280;31860;45.186;5.790;2024-03-02T07:03:54;98129.81;;;10.24;100.00
46129;BME280;31860;45.186;5.790;2024-03-02T07:06:20;98138.53;;;10.24;100.00
46129;BME280;31860;45.186;5.790;2024-03-02T07:08:45;98144.63;;;10.22;100.00
46129;BME280;31860;45.186;5.790;2024-03-02T07:11:10;98141.16;;;10.23;100.00
46129;BME280;31860;45.186;5.790;2024-03-02T07:13:36;98135.84;;;10.29;100.00
46129;BME280;31860;45.186;5.790;2024-03-02T07:16:01;98119.28;;;10.30;100.00
46129;BME280;31860;45.186;5.790;2024-03-02T07:18:32;98117.53;;;10.32;100.00
46129;BME280;31860;45.186;5.790;2024-03-02T07:21:06;98120.13;;;10.32;100.00
46129;BME280;31860;45.186;5.790;2024-03-02T07:23:31;98111.38;;;10.36;100.00
46129;BME280;31860;45.186;5.790;2024-03-02T07:25:57;98100.03;;;10.38;100.00
46129;BME280;31860;45.186;5.790;2024-03-02T07:28:23;98100.91;;;10.37;100.00
46129;BME280;31860;45.186;5.790;2024-03-02T07:31:00;98109.53;;;10.41;100.00
46129;BME280;31860;45.186;5.790;2024-03-02T07:33:26;98109.50;;;10.44;100.00
46129;BME280;31860;45.186;5.790;2024-03-02T07:35:51;98106.03;;;10.43;100.00
46129;BME280;31860;45.186;5.790;2024-03-02T07:38:17;98104.31;;;10.42;100.00
46129;BME280;31860;45.186;5.790;2024-03-02T07:40:42;98108.56;;;10.48;100.00
46129;BME280;31860;45.186;5.790;2024-03-02T07:43:08;98116.38;;;10.49;100.00
46129;BME280;31860;45.186;5.790;2024-03-02T07:45:34;98099.72;;;10.55;100.00
46129;BME280;31860;45.186;5.790;2024-03-02T07:48:01;98097.84;;;10.63;100.00
46129;BME280;31860;45.186;5.790;2024-03-02T07:50:26;98086.41;;;10.70;100.00
46129;BME280;31860;45.186;5.790;2024-03-02T07:52:52;98077.56;;;10.77;100.00
46129;BME280;31860;45.186;5.790;2024-03-02T07:55:17;98077.50;;;10.80;100.00
46129;BME280;31860;45.186;5.790;2024-03-02T07:57:43;98077.38;;;10.88;100.00
46129;BME280;31860;45.186;5.790;2024-03-02T08:00:08;98078.09;;;10.94;100.00
46129;BME280;31860;45.186;5.790;2024-03-02T08:02:34;98060.56;;;10.99;100.00
46129;BME280;31860;45.186;5.790;2024-03-02T08:05:01;98062.09;;;11.09;100.00
46129;BME280;31860;45.186;5.790;2024-03-02T08:07:26;98060.09;;;11.22;100.00
46129;BME280;31860;45.186;5.790;2024-03-02T08:09:51;98057.31;;;11.31;100.00
46129;BME280;31860;45.186;5.790;2024-03-02T08:12:17;98056.31;;;11.36;100.00
46129;BME280;31860;45.186;5.790;2024-03-02T08:14:43;98053.53;;;11.44;100.00
46129;BME280;31860;45.186;5.790;2024-03-02T08:17:08;98050.88;;;11.45;100.00
46129;BME280;31860;45.186;5.790;2024-03-02T08:19:35;98055.28;;;11.43;100.00
46129;BME280;31860;45.186;5.790;2024-03-02T08:22:00;98052.75;;;11.40;100.00
46129;BME280;31860;45.186;5.790;2024-03-02T08:24:25;98053.53;;;11.44;100.00
46129;BME280;31860;45.186;5.790;2024-03-02T08:26:51;98043.75;;;11.52;100.00
46129;BME280;31860;45.186;5.790;2024-03-02T08:29:16;98036.59;;;11.60;100.00
46129;BME280;31860;45.186;5.790;2024-03-02T08:31:41;98036.41;;;11.69;100.00
46129;BME280;31860;45.186;5.790;2024-03-02T08:34:07;98034.59;;;11.73;100.00
46129;BME280;31860;45.186;5.790;2024-03-02T08:36:32;98028.28;;;11.81;100.00
46129;BME280;31860;45.186;5.790;2024-03-02T08:38:57;98032.41;;;11.91;100.00
46129;BME280;31860;45.186;5.790;2024-03-02T08:41:23;98025.19;;;12.01;100.00
46129;BME280;31860;45.186;5.790;2024-03-02T08:43:48;98017.13;;;12.10;100.00
46129;BME280;31860;45.186;5.790;2024-03-02T08:46:14;98009.94;;;12.16;100.00
46129;BME280;31860;45.186;5.790;2024-03-02T08:48:39;98008.88;;;12.25;100.00
46129;BME280;31860;45.186;5.790;2024-03-02T08:51:04;97999.03;;;12.34;100.00
46129;BME280;31860;45.186;5.790;2024-03-02T08:53:33;98003.91;;;12.47;100.00
46129;BME280;31860;45.186;5.790;2024-03-02T08:55:58;97999.25;;;12.58;100.00
46129;BME280;31860;45.186;5.790;2024-03-02T08:58:23;97993.72;;;12.68;100.00
46129;BME280;31860;45.186;5.790;2024-03-02T09:00:49;97995.19;;;12.78;100.00
46129;BME280;31860;45.186;5.790;2024-03-02T09:03:14;97986.25;;;12.85;100.00
46129;BME280;31860;45.186;5.790;2024-03-02T09:05:40;97995.53;;;12.95;100.00
46129;BME280;31860;45.186;5.790;2024-03-02T09:08:05;97984.88;;;13.01;100.00
46129;BME280;31860;45.186;5.790;2024-03-02T09:10:31;97979.56;;;13.06;100.00
46129;BME280;31860;45.186;5.790;2024-03-02T09:12:56;97971.63;;;13.07;100.00
46129;BME280;31860;45.186;5.790;2024-03-02T09:15:21;97974.22;;;13.09;100.00
46129;BME280;31860;45.186;5.790;2024-03-02T09:17:47;97972.47;;;13.09;100.00
46129;BME280;31860;45.186;5.790;2024-03-02T09:20:12;97967.97;;;13.13;100.00
46129;BME280;31860;45.186;5.790;2024-03-02T09:22:39;97964.47;;;13.14;100.00
46129;BME280;31860;45.186;5.790;2024-03-02T09:25:04;97959.16;;;13.15;100.00
46129;BME280;31860;45.186;5.790;2024-03-02T09:27:29;97960.00;;;13.17;100.00
46129;BME280;31860;45.186;5.790;2024-03-02T09:29:55;97946.94;;;13.16;100.00
46129;BME280;31860;45.186;5.790;2024-03-02T09:32:20;97939.94;;;13.15;100.00
46129;BME280;31860;45.186;5.790;2024-03-02T09:34:45;97941.75;;;13.13;100.00
46129;BME280;31860;45.186;5.790;2024-03-02T09:37:13;97934.81;;;13.12;100.00
46129;BME280;31860;45.186;5.790;2024-03-02T09:39:39;97936.56;;;13.11;100.00
46129;BME280;31860;45.186;5.790;2024-03-02T09:42:04;97924.41;;;13.09;100.00
46129;BME280;31860;45.186;5.790;2024-03-02T09:44:31;97925.31;;;13.08;100.00
46129;BME280;31860;45.186;5.790;2024-03-02T09:46:56;97922.75;;;13.06;100.00
46129;BME280;31860;45.186;5.790;2024-03-02T09:49:22;97918.34;;;13.07;100.00
46129;BME280;31860;45.186;5.790;2024-03-02T09:51:48;97920.16;;;13.05;100.00
46129;BME280;31860;45.186;5.790;2024-03-02T09:54:16;97919.34;;;13.03;100.00
46129;BME280;31860;45.186;5.790;2024-03-02T09:56:43;97916.75;;;13.01;100.00
46129;BME280;31860;45.186;5.790;2024-03-02T09:59:08;97913.28;;;13.01;100.00
46129;BME280;31860;45.186;5.790;2024-03-02T10:01:34;97912.41;;;13.00;100.00
46129;BME280;31860;45.186;5.790;2024-03-02T10:04:00;97903.75;;;12.98;100.00
46129;BME280;31860;45.186;5.790;2024-03-02T10:06:27;97897.69;;;12.96;100.00
46129;BME280;31860;45.186;5.790;2024-03-02T10:08:54;97901.19;;;12.97;100.00
46129;BME280;31860;45.186;5.790;2024-03-02T10:11:32;97895.94;;;12.97;100.00
46129;BME280;31860;45.186;5.790;2024-03-02T10:14:10;97895.94;;;12.97;100.00
46129;BME280;31860;45.186;5.790;2024-03-02T10:16:44;97884.59;;;12.96;100.00
46129;BME280;31860;45.186;5.790;2024-03-02T10:19:23;97874.97;;;12.97;100.00
46129;BME280;31860;45.186;5.790;2024-03-02T10:21:53;97870.56;;;12.97;100.00
46129;BME280;31860;45.186;5.790;2024-03-02T10:24:20;97871.47;;;12.96;100.00
46129;BME280;31860;45.186;5.790;2024-03-02T10:26:46;97863.63;;;12.96;100.00
46129;BME280;31860;45.186;5.790;2024-03-02T10:29:12;97856.63;;;12.97;100.00
46129;BME280;31860;45.186;5.790;2024-03-02T10:31:38;97854.84;;;12.97;100.00
46129;BME280;31860;45.186;5.790;2024-03-02T10:34:05;97846.97;;;12.97;100.00
46129;BME280;31860;45.186;5.790;2024-03-02T10:36:34;97841.72;;;12.99;100.00
46129;BME280;31860;45.186;5.790;2024-03-02T10:39:04;97832.88;;;13.01;100.00
46129;BME280;31860;45.186;5.790;2024-03-02T10:41:37;97824.97;;;13.04;100.00
46129;BME280;31860;45.186;5.790;2024-03-02T10:44:05;97827.38;;;13.10;100.00
46129;BME280;31860;45.186;5.790;2024-03-02T10:46:32;97822.84;;;13.15;100.00
46129;BME280;31860;45.186;5.790;2024-03-02T10:49:02;97819.97;;;13.23;100.00
46129;BME280;31860;45.186;5.790;2024-03-02T10:51:30;97805.69;;;13.31;100.00
46129;BME280;31860;45.186;5.790;2024-03-02T10:54:02;97809.72;;;13.42;100.00
46129;BME280;31860;45.186;5.790;2024-03-02T10:56:33;97798.13;;;13.49;100.00
46129;BME280;31860;45.186;5.790;2024-03-02T11:01:47;97781.78;;;13.65;100.00
46129;BME280;31860;45.186;5.790;2024-03-02T11:04:16;97773.56;;;13.76;100.00
46129;BME280;31860;45.186;5.790;2024-03-02T11:06:47;97761.75;;;13.87;100.00
46129;BME280;31860;45.186;5.790;2024-03-02T11:09:14;97761.22;;;14.01;100.00
46129;BME280;31860;45.186;5.790;2024-03-02T11:11:43;97747.53;;;14.16;100.00
46129;BME280;31860;45.186;5.790;2024-03-02T11:14:14;97740.03;;;14.30;100.00
46129;BME280;31860;45.186;5.790;2024-03-02T11:16:42;97733.25;;;14.46;100.00
46129;BME280;31860;45.186;5.790;2024-03-02T11:19:12;97724.78;;;14.61;100.00
46129;BME280;31860;45.186;5.790;2024-03-02T11:21:38;97709.41;;;14.74;100.00
46129;BME280;31860;45.186;5.790;2024-03-02T11:26:48;97702.81;;;15.05;100.00
46129;BME280;31860;45.186;5.790;2024-03-02T11:32:01;97688.59;;;15.30;100.00
46129;BME280;31860;45.186;5.790;2024-03-02T11:34:36;97690.00;;;15.38;100.00
46129;BME280;31860;45.186;5.790;2024-03-02T11:37:02;97684.44;;;15.46;100.00
46129;BME280;31860;45.186;5.790;2024-03-02T11:39:28;97684.19;;;15.52;100.00
46129;BME280;31860;45.186;5.790;2024-03-02T11:41:55;97674.22;;;15.58;100.00
46129;BME280;31860;45.186;5.790;2024-03-02T11:44:21;97662.63;;;15.62;100.00
46129;BME280;31860;45.186;5.790;2024-03-02T11:46:58;97659.06;;;15.63;100.00
46129;BME280;31860;45.186;5.790;2024-03-02T11:49:49;97661.69;;;15.63;100.00
46129;BME280;31860;45.186;5.790;2024-03-02T11:52:16;97651.31;;;15.60;100.00
46129;BME280;31860;45.186;5.790;2024-03-02T11:54:44;97657.53;;;15.59;100.00
46129;BME280;31860;45.186;5.790;2024-03-02T11:57:17;97645.34;;;15.57;100.00
46129;BME280;31860;45.186;5.790;2024-03-02T11:59:44;97644.63;;;15.53;100.00
46129;BME280;31860;45.186;5.790;2024-03-02T12:02:15;97649.19;;;15.50;100.00
46129;BME280;31860;45.186;5.790;2024-03-02T12:04:42;97637.00;;;15.47;100.00
46129;BME280;31860;45.186;5.790;2024-03-02T12:07:08;97628.31;;;15.45;100.00
46129;BME280;31860;45.186;5.790;2024-03-02T12:09:34;97626.75;;;15.41;100.00
46129;BME280;31860;45.186;5.790;2024-03-02T12:12:07;97623.38;;;15.38;100.00
46129;BME280;31860;45.186;5.790;2024-03-02T12:14:34;97608.56;;;15.35;100.00
46129;BME280;31860;45.186;5.790;2024-03-02T12:17:00;97611.25;;;15.34;100.00
46129;BME280;31860;45.186;5.790;2024-03-02T12:19:26;97605.22;;;15.32;100.00
46129;BME280;31860;45.186;5.790;2024-03-02T12:22:01;97598.25;;;15.31;100.00
46129;BME280;31860;45.186;5.790;2024-03-02T12:24:28;97598.38;;;15.28;100.00
46129;BME280;31860;45.186;5.790;2024-03-02T12:26:54;97595.75;;;15.28;100.00
46129;BME280;31860;45.186;5.790;2024-03-02T12:29:20;97590.47;;;15.28;100.00
46129;BME280;31860;45.186;5.790;2024-03-02T12:31:48;97580.03;;;15.26;100.00
46129;BME280;31860;45.186;5.790;2024-03-02T12:34:15;97582.66;;;15.26;100.00
46129;BME280;31860;45.186;5.790;2024-03-02T12:36:41;97580.97;;;15.25;100.00
46129;BME280;31860;45.186;5.790;2024-03-02T12:39:10;97580.13;;;15.25;100.00
46129;BME280;31860;45.186;5.790;2024-03-02T12:41:36;97582.66;;;15.26;100.00
46129;BME280;31860;45.186;5.790;2024-03-02T12:44:03;97582.81;;;15.43;100.00
46129;BME280;31860;45.186;5.790;2024-03-02T12:46:29;97551.38;;;15.59;100.00
46129;BME280;31860;45.186;5.790;2024-03-02T12:48:54;97543.31;;;15.80;100.00
46129;BME280;31860;45.186;5.790;2024-03-02T12:51:19;97541.44;;;16.01;100.00
46129;BME280;31860;45.186;5.790;2024-03-02T12:53:45;97548.75;;;16.13;100.00